Latest Weather Observations for Mount Boyce

IDN60901

Issued at 1:12 am EDT Tuesday 23 December 2014 (issued every 10 minutes, with the page automatically refreshed every 10 minutes)

About weather observations | Map of Sydney area stations | Latest observations for Sydney area | Other Formats
Station Details ID: 063292 Name: MOUNT BOYCE AWS Lat: -33.62 Lon: 150.27 Height: 1080.0 m
Data from the previous 72 hours. | See also: Recent months at Mount Boyce
Date/Time
EDT
Tmp

°C
App
Tmp
°C
Dew
Point
°C
Rel
Hum
%
Delta-T

°C
Wind Press
QNH
hPa
Press
MSL
hPa
Rain
since
9 am
mm
Dir
 
Spd
km/h
Gust
km/h
Spd
kts
Gust
kts
22/01:30pm 15.3 13.2 12.4 83 1.7 WSW 15 20 8 11 - - 8.6
22/01:00pm 18.1 18.4 14.6 80 2.1 SSW 6 9 3 5 - - 2.0
22/12:43pm 17.6 16.7 12.5 72 3.0 WSW 9 20 5 11 - - 0.8
22/12:30pm 19.7 17.0 11.7 60 4.7 W 17 30 9 16 - - 0.0
22/12:29pm 19.9 17.4 11.1 57 5.1 W 15 30 8 16 - - 0.0
22/12:00pm 25.6 24.3 11.4 41 8.4 ENE 9 22 5 12 - - 0.0
22/11:30am 26.4 25.1 11.3 39 9.0 NE 9 19 5 10 - - 0.0
22/11:00am 25.2 23.5 9.9 38 8.9 NE 9 20 5 11 - - 0.0
22/10:30am 23.9 21.9 8.7 38 8.6 N 9 17 5 9 - - 0.0
22/10:00am 23.2 20.4 8.5 39 8.2 NNE 13 24 7 13 - - 0.0
22/09:30am 22.9 20.7 9.3 42 7.7 NNW 11 28 6 15 - - 0.0
22/09:00am 20.7 19.5 10.2 51 6.0 W 7 9 4 5 - - 0.0
22/08:30am 21.9 19.6 7.3 39 7.9 N 9 19 5 10 - - 0.0
22/08:00am 20.8 18.0 7.1 41 7.4 NE 11 17 6 9 - - 0.0
22/07:30am 19.6 16.1 5.6 40 7.3 NE 13 19 7 10 - - 0.0
22/07:00am 18.3 15.0 4.8 41 6.9 NNE 11 17 6 9 - - 0.0
22/06:30am 18.4 14.6 3.8 38 7.3 NNE 13 19 7 10 - - 0.0
22/05:30am 17.3 14.4 4.6 43 6.4 NNE 9 15 5 8 - - 0.0
22/05:00am 16.0 13.2 7.0 55 4.7 NE 11 17 6 9 - - 0.0
22/04:30am 15.1 13.0 9.7 70 3.0 NE 11 15 6 8 - - 0.0
22/04:00am 14.8 13.3 11.8 82 1.7 ENE 11 15 6 8 - - 0.0
22/03:30am 14.8 13.4 12.3 85 1.4 ENE 11 13 6 7 - - 0.0
22/03:00am 14.6 13.4 12.8 89 1.0 ENE 11 15 6 8 - - 0.0
22/02:30am 14.9 14.0 12.6 86 1.3 NE 9 17 5 9 - - 0.0
22/02:00am 15.4 15.1 14.3 93 0.7 N 9 15 5 8 - - 0.0
22/01:38am 14.9 14.5 14.1 95 0.5 ENE 9 15 5 8 - - 0.0
22/01:37am 14.9 14.5 14.1 95 0.5 ENE 9 17 5 9 - - 0.0
22/01:30am 15.1 14.4 14.3 95 0.5 NE 11 17 6 9 - - 0.0
22/01:05am 15.2 15.3 14.4 95 0.5 NE 7 11 4 6 - - 0.0
22/01:00am 15.2 15.3 14.4 95 0.5 NE 7 13 4 7 - - 0.0
22/12:30am 15.6 15.4 14.8 95 0.5 NE 9 15 5 8 - - 0.0
22/12:00am 15.7 15.9 14.7 94 0.6 ENE 7 11 4 6 - - 0.0
 
Date/Time
EDT
Tmp

°C
App
Tmp
°C
Dew
Point
°C
Rel
Hum
%
Delta-T

°C
Wind Press
QNH
hPa
Press
MSL
hPa
Rain
since
9 am
mm
Dir
 
Spd
km/h
Gust
km/h
Spd
kts
Gust
kts
21/11:30pm 15.9 16.2 14.9 94 0.6 ENE 7 13 4 7 - - 0.0
21/11:00pm 15.8 15.6 14.8 94 0.6 ENE 9 15 5 8 - - 0.0
21/10:30pm 15.8 15.3 14.8 94 0.6 ENE 11 20 6 11 - - 0.0
21/10:27pm 15.9 15.0 14.9 94 0.6 ENE 13 19 7 10 - - 0.0
21/10:05pm 15.9 15.4 14.8 93 0.7 ENE 11 17 6 9 - - 0.0
21/10:00pm 15.8 15.2 14.5 92 0.8 ENE 11 17 6 9 - - 0.0
21/09:30pm 16.2 15.6 14.6 90 1.0 ENE 11 17 6 9 - - 0.0
21/09:00pm 16.7 16.1 14.5 87 1.3 ENE 11 22 6 12 - - 0.0
21/08:30pm 17.4 16.4 14.5 83 1.8 ENE 13 24 7 13 - - 0.0
21/08:00pm 18.4 17.2 14.1 76 2.6 ENE 13 24 7 13 - - 0.0
21/07:30pm 20.5 19.1 14.6 69 3.6 ENE 15 22 8 12 - - 0.0
21/07:00pm 21.8 20.8 14.7 64 4.4 ENE 13 24 7 13 - - 0.0
21/06:30pm 23.1 21.8 14.7 59 5.2 ENE 15 26 8 14 - - 0.0
21/06:00pm 23.6 22.3 13.8 54 6.0 ENE 13 30 7 16 - - 0.0
21/05:30pm 23.9 21.9 11.6 46 7.3 ENE 13 22 7 12 - - 0.0
21/05:00pm 25.1 23.4 11.3 42 8.2 ENE 11 20 6 11 - - 0.0
21/04:30pm 25.9 23.7 10.9 39 8.9 ENE 13 24 7 13 - - 0.0
21/04:00pm 26.1 24.0 11.1 39 8.9 ENE 13 22 7 12 - - 0.0
21/03:30pm 25.6 23.6 10.2 38 9.0 ENE 11 19 6 10 - - 0.0
21/03:00pm 25.2 23.1 11.0 41 8.4 NE 13 19 7 10 - - 0.0
21/02:30pm 24.7 23.1 11.6 44 7.8 NE 11 20 6 11 - - 0.0
21/02:00pm 23.7 21.7 10.0 42 7.9 NE 11 19 6 10 - - 0.0
21/01:30pm 23.7 21.7 10.0 42 7.9 NE 11 17 6 9 - - 0.0
21/01:00pm 23.8 22.1 11.2 45 7.4 NE 11 20 6 11 - - 0.0
21/12:30pm 22.6 21.1 10.4 46 7.0 NE 9 19 5 10 - - 0.0
21/12:00pm 22.4 20.5 10.5 47 6.9 NE 11 20 6 11 - - 0.0
21/11:30am 21.2 19.3 10.4 50 6.2 NE 11 20 6 11 - - 0.0
21/11:00am 20.6 18.5 9.8 50 6.1 NE 11 19 6 10 - - 0.0
21/10:30am 19.5 17.1 10.2 55 5.3 NE 13 22 7 12 - - 0.0
21/10:00am 18.5 16.0 9.8 57 4.9 NE 13 24 7 13 - - 0.0
21/09:30am 17.5 15.1 9.9 61 4.2 NE 13 22 7 12 - - 0.0
21/09:00am 16.0 13.5 9.7 66 3.5 NE 13 24 7 13 - - 0.0
21/08:30am 15.2 12.9 10.4 73 2.7 NE 13 20 7 11 - - 0.0
21/08:00am 14.0 12.2 10.8 81 1.8 NE 11 22 6 12 - - 0.0
21/07:30am 12.8 10.7 11.2 90 0.9 NE 13 20 7 11 - - 0.0
21/07:00am 11.5 9.8 11.2 98 0.2 NE 11 17 6 9 - - 0.0
21/06:50am 11.2 9.8 10.9 98 0.2 NE 9 17 5 9 - - 0.0
21/06:30am 10.6 9.0 10.3 98 0.2 NE 9 17 5 9 - - 0.0
21/06:00am 9.7 7.8 9.2 97 0.3 ENE 9 19 5 10 - - 0.0
21/05:53am 9.5 7.6 9.0 97 0.3 ENE 9 17 5 9 - - 0.0
21/05:51am 9.5 7.6 9.0 97 0.3 NE 9 17 5 9 - - 0.0
21/05:30am 9.3 7.3 8.7 96 0.3 ENE 9 17 5 9 - - 0.0
21/05:00am 9.4 7.4 8.8 96 0.3 ENE 9 15 5 8 - - 0.0
21/04:30am 9.6 7.7 9.0 96 0.3 ENE 9 13 5 7 - - 0.0
21/04:00am 9.8 7.9 9.2 96 0.3 ENE 9 17 5 9 - - 0.0
21/03:53am 9.7 7.8 9.1 96 0.3 ENE 9 17 5 9 - - 0.0
21/03:30am 9.8 7.6 9.2 96 0.3 ENE 11 17 6 9 - - 0.0
21/03:00am 9.9 8.0 9.1 95 0.4 ENE 9 13 5 7 - - 0.0
21/02:53am 9.8 7.9 9.0 95 0.4 ENE 9 13 5 7 - - 0.0
21/02:30am 9.8 7.9 9.0 95 0.4 ENE 9 13 5 7 - - 0.0
21/02:00am 10.1 8.2 9.2 94 0.5 ENE 9 13 5 7 - - 0.0
21/01:33am 10.2 8.7 9.3 94 0.5 ENE 7 11 4 6 - - 0.0
21/01:30am 10.2 8.7 9.3 94 0.5 ENE 7 11 4 6 - - 0.0
21/01:26am 10.2 8.3 9.1 93 0.6 ENE 9 13 5 7 - - 0.0
21/01:04am 10.5 9.1 9.6 94 0.5 ENE 7 15 4 8 - - 0.0
21/01:00am 10.5 8.7 9.6 94 0.5 ENE 9 15 5 8 - - 0.0
21/12:30am 10.7 8.6 9.8 94 0.5 ENE 11 19 6 10 - - 0.0
21/12:00am 10.9 8.8 9.8 93 0.6 ENE 11 17 6 9 - - 0.0
 
Date/Time
EDT
Tmp

°C
App
Tmp
°C
Dew
Point
°C
Rel
Hum
%
Delta-T

°C
Wind Press
QNH
hPa
Press
MSL
hPa
Rain
since
9 am
mm
Dir
 
Spd
km/h
Gust
km/h
Spd
kts
Gust
kts
20/11:30pm 11.2 9.1 9.9 92 0.7 ENE 11 15 6 8 - - 0.0
20/11:00pm 11.5 9.5 10.2 92 0.7 ENE 11 19 6 10 - - 0.0
20/10:30pm 11.9 9.6 10.3 90 0.9 ENE 13 19 7 10 - - 0.0
20/10:00pm 12.3 10.0 10.4 88 1.0 ENE 13 20 7 11 - - 0.0
20/09:30pm 12.9 10.6 10.4 85 1.4 ENE 13 19 7 10 - - 0.0
20/09:00pm 13.4 11.4 10.2 81 1.8 ENE 11 17 6 9 - - 0.0
20/08:30pm 14.1 12.1 10.1 77 2.2 ENE 11 17 6 9 - - 0.0
20/08:00pm 15.3 13.3 10.1 71 2.9 ENE 11 20 6 11 - - 0.0
20/07:30pm 16.7 14.7 10.3 66 3.6 E 11 24 6 13 - - 0.0
20/07:00pm 18.5 16.2 10.6 60 4.5 E 13 24 7 13 - - 0.0
20/06:30pm 19.4 16.8 9.3 52 5.6 E 13 20 7 11 - - 0.0
20/06:00pm 20.1 17.5 9.4 50 6.0 ENE 13 24 7 13 - - 0.0
20/05:30pm 21.2 18.9 10.4 50 6.2 ENE 13 20 7 11 - - 0.0
20/05:00pm 21.7 19.5 10.8 50 6.3 ENE 13 26 7 14 - - 0.0
20/04:30pm 22.3 20.6 12.3 53 6.0 ENE 13 26 7 14 - - 0.0
20/04:00pm 22.0 20.3 9.9 46 6.9 ENE 9 20 5 11 - - 0.0
20/03:30pm 22.2 19.8 10.0 46 7.0 ENE 13 20 7 11 - - 0.0
20/03:00pm 21.4 19.6 9.6 47 6.7 NE 9 15 5 8 - - 0.0
20/02:30pm 20.9 19.0 8.9 46 6.7 ESE 9 15 5 8 - - 0.0
20/02:00pm 20.2 18.5 8.2 46 6.6 N 7 17 4 9 - - 0.0
20/01:30pm 19.5 18.1 9.4 52 5.6 ENE 7 13 4 7 - - 0.0
20/01:00pm 19.1 17.0 6.6 44 6.6 SSW 7 13 4 7 - - 0.0
20/12:30pm 18.9 17.2 7.7 48 6.0 NW 6 13 3 7 - - 0.0
20/12:00pm 17.2 15.3 7.5 53 5.2 SW 7 17 4 9 - - 0.0
20/11:30am 17.6 15.7 9.0 57 4.7 NNE 9 15 5 8 - - 0.0
20/11:00am 16.2 14.1 8.4 60 4.2 NE 9 17 5 9 - - 0.0
20/10:30am 15.5 13.0 8.3 62 3.9 NNE 11 20 6 11 - - 0.0
20/10:00am 13.9 11.6 7.4 65 3.4 NE 9 17 5 9 - - 0.0
20/09:30am 13.7 11.5 7.7 67 3.1 NE 9 17 5 9 - - 0.0
20/09:12am 13.6 11.3 7.6 67 3.1 ENE 9 15 5 8 - - 0.0
20/09:00am 13.3 11.3 8.8 74 2.4 NE 9 15 5 8 - - 0.0
20/08:51am 12.0 9.7 7.3 73 2.4 ENE 9 13 5 7 - - 0.0
20/08:30am 11.9 9.6 7.6 75 2.2 ENE 9 19 5 10 - - 0.0
20/08:00am 10.3 8.2 8.1 86 1.1 ENE 9 17 5 9 - - 0.0
20/07:54am 9.8 7.5 7.6 86 1.1 ENE 9 19 5 10 - - 0.0
20/07:30am 9.9 7.7 8.0 88 1.0 NE 9 15 5 8 - - 0.0
20/07:00am 9.6 8.0 7.9 89 0.9 ENE 6 11 3 6 - - 0.0
20/06:30am 9.4 7.8 8.0 91 0.7 ENE 6 13 3 7 - - 0.0
20/06:00am 9.2 7.4 8.0 92 0.6 ENE 7 13 4 7 - - 0.0
20/05:30am 9.1 7.3 7.9 92 0.6 ENE 7 17 4 9 - - 0.0
20/05:00am 8.9 7.0 7.5 91 0.7 ENE 7 13 4 7 - - 0.0
20/04:30am 9.1 7.3 7.9 92 0.6 ENE 7 13 4 7 - - 0.0
20/04:09am 9.3 7.5 8.1 92 0.6 E 7 15 4 8 - - 0.0
20/04:00am 9.4 7.8 8.2 92 0.6 E 6 11 3 6 - - 0.0
20/03:47am 9.5 7.9 8.1 91 0.7 ENE 6 13 3 7 - - 0.0
20/03:30am 9.5 7.9 7.9 90 0.8 ENE 6 11 3 6 - - 0.0
20/03:00am 9.4 7.6 8.0 91 0.7 ENE 7 15 4 8 - - 0.0
20/02:39am 9.3 7.4 7.7 90 0.8 ENE 7 13 4 7 - - 0.0
20/02:35am 9.3 7.4 7.7 90 0.8 ENE 7 13 4 7 - - 0.0
20/02:30am 9.2 7.3 7.6 90 0.8 ENE 7 13 4 7 - - 0.0
20/02:00am 9.2 6.9 7.3 88 1.0 ENE 9 15 5 8 - - 0.0
20/01:30am 9.5 7.2 7.6 88 1.0 ENE 9 15 5 8 - - 0.0

Latest Capital City Observations: Canberra | Sydney | Melbourne | Brisbane | Adelaide | Perth | Hobart | Darwin

Other Formats:

Comma delimited format used in spreadsheet applications
http://www.bom.gov.au/fwo/IDN60901/IDN60901.94743.axf

JavaScript Object Notation format (JSON) in row-major order
http://www.bom.gov.au/fwo/IDN60901/IDN60901.94743.json